Robijn — PBEJ — position and weather

sailwx.info

Track history (hours):
 
Tides and Currents Weather Stations Pressure Air Temp Water Temp Dewpoint Dewpoint Depression Visibility Wind Speed Wind Dir Waves Ship Positions

Robijn

Last reported at 2017-Jul-28 06:30 UTC. Time now 2017-Jul-28 06:52 UTC.
Position N 51°49' E 003°22'.

Length 90 m; draft 3.2 m.

Type: Cargo ship. MMSI: 245909000.

Date/timePositionNaut miles runAvg speedWind from/ knotsBaromVisibWave heightAir tempDewpointWater temp
2017-Jul-28 06:30N 51°49' E 003°22'0 0.0
2017-Jul-28 06:00N 51°49' E 003°22'0 0.0
2017-Jul-28 05:30N 51°49' E 003°22'0 0.2
2017-Jul-28 04:06N 51°49' E 003°21'0 0.0
2017-Jul-28 04:00N 51°49' E 003°21'0 0.3
2017-Jul-28 02:38N 51°49' E 003°22'0 0.0
2017-Jul-28 02:30N 51°49' E 003°22'0 0.1
2017-Jul-28 01:41N 51°49' E 003°22'0 0.0
2017-Jul-28 01:30N 51°49' E 003°22'0 0.1
2017-Jul-28 01:00N 51°49' E 003°22'0 0.1
2017-Jul-28 00:30N 51°49' E 003°22'0 0.0
2017-Jul-28 00:00N 51°49' E 003°22'0 0.1
2017-Jul-27 23:30N 51°49' E 003°22'0 0.0
2017-Jul-27 23:00N 51°49' E 003°22'0 0.1
2017-Jul-27 22:30N 51°49' E 003°22'0 0.1
2017-Jul-27 22:00N 51°49' E 003°22'0 0.0
2017-Jul-27 19:23N 51°49' E 003°21'0 0.2
2017-Jul-27 19:00N 51°49' E 003°21'0 0.1
2017-Jul-27 18:30N 51°49' E 003°21'0 0.2
2017-Jul-27 18:00N 51°49' E 003°21'0 0.0
2017-Jul-27 12:30N 51°48' E 003°21'0 0.0
2017-Jul-27 11:19N 51°48' E 003°21'0 0.0
2017-Jul-27 11:00N 51°48' E 003°21'0 0.1
2017-Jul-27 10:30N 51°48' E 003°21'0 0.1
2017-Jul-27 09:10N 51°48' E 003°21'0 0.0
2017-Jul-27 09:00N 51°48' E 003°21'0 0.0
2017-Jul-27 02:56N 51°48' E 003°21'0 0.0
2017-Jul-27 02:30N 51°48' E 003°21'0 0.0
2017-Jul-27 02:00N 51°48' E 003°21'0 0.1
2017-Jul-27 01:26N 51°48' E 003°21'0 0.0
2017-Jul-27 01:00N 51°48' E 003°21'0 0.1
2017-Jul-27 00:30N 51°48' E 003°21'0 0.0
2017-Jul-27 00:00N 51°48' E 003°21'0 0.1
2017-Jul-26 23:30N 51°48' E 003°21'0 0.0
2017-Jul-26 23:00N 51°48' E 003°21'0 0.0
2017-Jul-26 22:30N 51°48' E 003°21'2 2.7
2017-Jul-26 21:54N 51°48' E 003°18'0 0.0
2017-Jul-26 21:30N 51°48' E 003°18'10 9.6
2017-Jul-26 20:30N 51°39' E 003°21'713.0
2017-Jul-26 20:00N 51°33' E 003°25'613.1
2017-Jul-26 19:30N 51°28' E 003°31'5 9.1
2017-Jul-26 19:00N 51°26' E 003°38'611.2
2017-Jul-26 18:30N 51°22' E 003°44'4 7.8
2017-Jul-26 18:00N 51°20' E 003°49'0 0.6
2017-Jul-26 17:30N 51°19' E 003°49'3 5.4
2017-Jul-26 16:59N 51°17' E 003°50'3 6.4
2017-Jul-26 16:30N 51°14' E 003°49'4 7.3
2017-Jul-26 16:00N 51°10' E 003°48'5 9.2
2017-Jul-26 15:30N 51°06' E 003°45'1 1.3
2017-Jul-26 14:58N 51°06' E 003°45'0 0.0
2017-Jul-26 13:58N 51°06' E 003°45'0 0.0
2017-Jul-26 13:28N 51°06' E 003°45'0 0.0
2017-Jul-26 12:58N 51°06' E 003°45'0 0.0
2017-Jul-26 12:28N 51°06' E 003°45'0 0.0
2017-Jul-26 11:58N 51°06' E 003°45'0 0.0
2017-Jul-26 11:28N 51°06' E 003°45'0 0.0
2017-Jul-26 10:58N 51°06' E 003°45'0 0.0
2017-Jul-26 10:28N 51°06' E 003°45'0 0.0
2017-Jul-26 09:58N 51°06' E 003°45'0 0.0
2017-Jul-26 09:28N 51°06' E 003°45'0 0.0
2017-Jul-26 08:58N 51°06' E 003°45'0 0.0
2017-Jul-26 08:28N 51°06' E 003°45'0 0.0
2017-Jul-26 07:58N 51°06' E 003°45'0 0.0
2017-Jul-26 07:28N 51°06' E 003°45'0 0.0
2017-Jul-26 06:58N 51°06' E 003°45'0 0.0
2017-Jul-26 06:28N 51°06' E 003°45'0 0.0
2017-Jul-26 05:58N 51°06' E 003°45'0 0.0
2017-Jul-26 05:28N 51°06' E 003°45'0 0.0
2017-Jul-26 04:58N 51°06' E 003°45'0 0.0
2017-Jul-26 04:28N 51°06' E 003°45'0 0.0
2017-Jul-26 03:58N 51°06' E 003°45'0 0.0
2017-Jul-26 03:28N 51°06' E 003°45'0 0.0
2017-Jul-26 02:58N 51°06' E 003°45'0 0.0
2017-Jul-26 02:28N 51°06' E 003°45'0 0.0
2017-Jul-26 01:58N 51°06' E 003°45'0 0.0
2017-Jul-26 01:28N 51°06' E 003°45'0 0.0
2017-Jul-26 00:58N 51°06' E 003°45'0 0.0
2017-Jul-26 00:28N 51°06' E 003°45'0 0.0
2017-Jul-25 23:58N 51°06' E 003°45'0 0.0
2017-Jul-25 23:28N 51°06' E 003°45'0 0.0
2017-Jul-25 22:58N 51°06' E 003°45'0 0.0
2017-Jul-25 22:28N 51°06' E 003°45'0 0.0
2017-Jul-25 21:58N 51°06' E 003°45'0 0.0
2017-Jul-25 21:28N 51°06' E 003°45'0 0.0
2017-Jul-25 20:58N 51°06' E 003°45'0 0.0
2017-Jul-25 20:28N 51°06' E 003°45'0 0.0
2017-Jul-25 19:58N 51°06' E 003°45'0 0.0
2017-Jul-25 19:28N 51°06' E 003°45'0 0.0
2017-Jul-25 18:58N 51°06' E 003°45'0 0.0
2017-Jul-25 18:28N 51°06' E 003°45'0 0.0
2017-Jul-25 17:58N 51°06' E 003°45'0 0.0
2017-Jul-25 17:28N 51°06' E 003°45'0 0.0
2017-Jul-25 16:58N 51°06' E 003°45'0 0.0
2017-Jul-25 16:28N 51°06' E 003°45'0 0.2
2017-Jul-25 16:00N 51°05' E 003°45'0 0.0
2017-Jul-25 15:27N 51°05' E 003°45'0 0.0
2017-Jul-25 15:00N 51°05' E 003°45'0 0.0
2017-Jul-25 14:00N 51°05' E 003°45'0 0.0
2017-Jul-25 13:30N 51°05' E 003°45'0 0.0
2017-Jul-25 13:00N 51°05' E 003°45'0 0.0
2017-Jul-25 12:30N 51°05' E 003°45'0 0.0
2017-Jul-25 12:00N 51°05' E 003°45'0 0.0
2017-Jul-25 11:30N 51°05' E 003°45'0 0.0
2017-Jul-25 11:00N 51°05' E 003°45'0 0.0
2017-Jul-25 10:30N 51°05' E 003°45'0 0.0
2017-Jul-25 10:00N 51°05' E 003°45'0 0.0
2017-Jul-25 09:30N 51°05' E 003°45'0 0.0
2017-Jul-25 08:57N 51°05' E 003°45'0 0.0
2017-Jul-25 08:30N 51°05' E 003°45'0 0.0
2017-Jul-25 08:00N 51°05' E 003°45'0 0.0
2017-Jul-25 07:30N 51°05' E 003°45'0 0.0
2017-Jul-25 06:57N 51°05' E 003°45'0 0.0
2017-Jul-25 06:30N 51°05' E 003°45'0 0.0
2017-Jul-25 06:00N 51°05' E 003°45'0 0.1
2017-Jul-25 05:30N 51°06' E 003°45'0 0.0
2017-Jul-25 05:00N 51°06' E 003°45'0 0.0
2017-Jul-25 04:30N 51°06' E 003°45'0 0.0
2017-Jul-25 04:00N 51°06' E 003°45'0 0.0
2017-Jul-25 03:30N 51°06' E 003°45'0 0.0
2017-Jul-25 03:00N 51°06' E 003°45'0 0.0
2017-Jul-25 02:30N 51°06' E 003°45'0 0.0
2017-Jul-25 02:00N 51°06' E 003°45'0 0.0
2017-Jul-25 01:30N 51°06' E 003°45'0 0.0
2017-Jul-25 01:00N 51°06' E 003°45'0 0.0
2017-Jul-25 00:30N 51°06' E 003°45'0 0.0
2017-Jul-24 23:57N 51°06' E 003°45'0 0.0
2017-Jul-24 23:30N 51°06' E 003°45'0 0.0
2017-Jul-24 23:00N 51°06' E 003°45'0 0.0
2017-Jul-24 22:30N 51°06' E 003°45'0 0.0
2017-Jul-24 22:00N 51°06' E 003°45'0 0.0
2017-Jul-24 21:30N 51°06' E 003°45'0 0.0
2017-Jul-24 20:57N 51°06' E 003°45'0 0.0
2017-Jul-24 20:30N 51°06' E 003°45'0 0.0
2017-Jul-24 20:00N 51°06' E 003°45'0 0.0
2017-Jul-24 19:30N 51°06' E 003°45'0 0.0
2017-Jul-24 19:00N 51°06' E 003°45'0 0.0
2017-Jul-24 18:30N 51°06' E 003°45'0 0.0
2017-Jul-24 18:00N 51°06' E 003°45'0 0.0
2017-Jul-24 17:30N 51°06' E 003°45'0 0.0
2017-Jul-24 17:00N 51°06' E 003°45'0 0.0
2017-Jul-24 16:30N 51°06' E 003°45'0 0.0
2017-Jul-24 16:00N 51°06' E 003°45'0 0.0
2017-Jul-24 13:00N 51°06' E 003°45'0 0.0
2017-Jul-24 12:30N 51°06' E 003°45'0 0.0
2017-Jul-24 12:00N 51°06' E 003°45'0 0.0
2017-Jul-24 11:30N 51°06' E 003°45'0 0.0
2017-Jul-24 11:00N 51°06' E 003°45'0 0.0
2017-Jul-24 10:30N 51°06' E 003°45'0 0.0
2017-Jul-24 10:00N 51°06' E 003°45'0 0.0
2017-Jul-24 09:30N 51°06' E 003°45'0 0.0
2017-Jul-24 09:00N 51°06' E 003°45'0 0.0
2017-Jul-24 08:30N 51°06' E 003°45'0 0.0
2017-Jul-24 08:00N 51°06' E 003°45'0 0.0
2017-Jul-24 07:30N 51°06' E 003°45'0 0.0
2017-Jul-24 07:00N 51°06' E 003°45'0 0.0
2017-Jul-24 06:30N 51°06' E 003°45'0 0.0
2017-Jul-24 06:00N 51°06' E 003°45'0 0.0
2017-Jul-24 05:30N 51°06' E 003°45'0 0.0
2017-Jul-24 05:00N 51°06' E 003°45'0 0.0
2017-Jul-24 04:30N 51°06' E 003°45'0 0.0
2017-Jul-24 04:00N 51°06' E 003°45'0 0.0
2017-Jul-24 03:30N 51°06' E 003°45'0 0.0
2017-Jul-24 02:57N 51°06' E 003°45'0 0.0
2017-Jul-24 02:30N 51°06' E 003°45'0 0.0
2017-Jul-24 02:00N 51°06' E 003°45'0 0.0
2017-Jul-24 01:30N 51°06' E 003°45'0 0.0
2017-Jul-24 01:00N 51°06' E 003°45'0 0.0
2017-Jul-24 00:30N 51°06' E 003°45'0 0.0
2017-Jul-24 00:00N 51°06' E 003°45'0 0.0
2017-Jul-23 23:30N 51°06' E 003°45'0 0.0
2017-Jul-23 23:00N 51°06' E 003°45'0 0.0
2017-Jul-23 22:30N 51°06' E 003°45'0 0.0
2017-Jul-23 22:00N 51°06' E 003°45'0 0.0
2017-Jul-23 21:30N 51°06' E 003°45'0 0.0
2017-Jul-23 21:00N 51°06' E 003°45'0 0.0
2017-Jul-23 20:30N 51°06' E 003°45'0 0.0
2017-Jul-23 20:00N 51°06' E 003°45'0 0.0
2017-Jul-23 19:30N 51°06' E 003°45'0 0.0
2017-Jul-23 18:57N 51°06' E 003°45'0 0.0
2017-Jul-23 18:30N 51°06' E 003°45'0 0.0
2017-Jul-23 18:00N 51°06' E 003°45'0 0.0
2017-Jul-23 17:30N 51°06' E 003°45'0 0.0
2017-Jul-23 17:00N 51°06' E 003°45'0 0.0
2017-Jul-23 16:30N 51°06' E 003°45'0 0.0
2017-Jul-23 16:00N 51°06' E 003°45'0 0.0
2017-Jul-23 15:30N 51°06' E 003°45'0 0.0
2017-Jul-23 15:00N 51°06' E 003°45'0 0.0
2017-Jul-23 14:30N 51°06' E 003°45'0 0.0
2017-Jul-23 14:00N 51°06' E 003°45'0 0.0
2017-Jul-23 13:30N 51°06' E 003°45'0 0.0
2017-Jul-23 13:00N 51°06' E 003°45'0 0.0
2017-Jul-23 12:30N 51°06' E 003°45'0 0.0
2017-Jul-23 11:57N 51°06' E 003°45'0 0.0
2017-Jul-23 11:30N 51°06' E 003°45'0 0.0
2017-Jul-23 11:00N 51°06' E 003°45'1 1.3
2017-Jul-23 10:30N 51°06' E 003°45'4 7.7
2017-Jul-23 10:01N 51°10' E 003°47'4 8.2
2017-Jul-23 09:30N 51°14' E 003°48'4 7.5
2017-Jul-23 09:00N 51°17' E 003°50'3 5.1
2017-Jul-23 08:30N 51°20' E 003°49'0 0.0
2017-Jul-23 08:00N 51°20' E 003°49'1 1.6
2017-Jul-23 07:30N 51°20' E 003°49'4 7.6
2017-Jul-23 07:00N 51°23' E 003°44'4 7.8
2017-Jul-23 06:30N 51°26' E 003°41'4 7.8
2017-Jul-23 06:00N 51°26' E 003°34'4 8.8
2017-Jul-23 05:30N 51°29' E 003°30'4 9.0
2017-Jul-23 05:00N 51°33' E 003°25'4 8.6
2017-Jul-23 04:30N 51°36' E 003°22'510.7
2017-Jul-23 04:00N 51°41' E 003°17'4 6.5
2017-Jul-23 03:24N 51°45' E 003°15'3 6.6
2017-Jul-23 03:00N 51°47' E 003°15'510.2
2017-Jul-23 02:30N 51°52' E 003°18'2 3.2
2017-Jul-23 02:00N 51°54' E 003°19'32 7.4
2017-Jul-22 21:41N 52°25' E 003°26'2 9.2
2017-Jul-22 21:30N 52°27' E 003°27'5 9.4
2017-Jul-22 21:00N 52°32' E 003°28'5 9.5
2017-Jul-22 20:30N 52°36' E 003°30'5 9.6
2017-Jul-22 19:58N 52°41' E 003°35'510.2
2017-Jul-22 19:30N 52°44' E 003°39'610.3
2017-Jul-22 18:58N 52°49' E 003°45'16 9.3
2017-Jul-22 17:17N 53°00' E 004°03'2 8.6
2017-Jul-22 17:00N 53°02' E 004°05'43 8.1
2017-Jul-22 11:37N 53°33' E 004°56'110.4
2017-Jul-22 11:30N 53°34' E 004°57'510.5
2017-Jul-22 11:00N 53°35' E 005°06'510.3
2017-Jul-22 10:30N 53°37' E 005°14'5 9.8
2017-Jul-22 10:00N 53°38' E 005°22'5 9.7
2017-Jul-22 09:30N 53°40' E 005°30'5 9.5
2017-Jul-22 09:00N 53°41' E 005°37'5 9.0
2017-Jul-22 08:30N 53°42' E 005°45'68 9.9
2017-Jul-22 01:38N 54°01' E 007°36'311.8
2017-Jul-22 01:23N 54°02' E 007°41'511.8
2017-Jul-22 00:59N 54°02' E 007°49'612.0
2017-Jul-22 00:30N 54°02' E 007°59'612.4
2017-Jul-21 23:59N 54°01' E 008°10'612.6
2017-Jul-21 23:30N 54°00' E 008°20'612.1
2017-Jul-21 23:00N 53°59' E 008°30'510.4
2017-Jul-21 22:30N 53°57' E 008°38'5 9.2
2017-Jul-21 22:00N 53°53' E 008°42'4 8.1
2017-Jul-21 21:30N 53°51' E 008°48'4 8.0
2017-Jul-21 21:00N 53°51' E 008°54'4 7.7
2017-Jul-21 20:30N 53°52' E 009°01'4 8.0
2017-Jul-21 20:00N 53°53' E 009°07'1 2.2
2017-Jul-21 19:30N 53°54' E 009°09'1 1.9
2017-Jul-21 19:00N 53°54' E 009°10'4 8.6
2017-Jul-21 18:30N 53°57' E 009°15'4 8.4
2017-Jul-21 18:00N 54°01' E 009°18'1 2.0
2017-Jul-21 17:30N 54°02' E 009°18'58 6.3
2017-Jul-21 08:14N 54°35' E 010°40'210.0
2017-Jul-21 08:00N 54°36' E 010°44'510.0
2017-Jul-21 07:30N 54°36' E 010°53'510.8
2017-Jul-21 07:00N 54°36' E 011°02'510.8
2017-Jul-21 06:30N 54°37' E 011°12'510.4
2017-Jul-21 06:00N 54°34' E 011°20'510.6
2017-Jul-21 05:30N 54°32' E 011°28'610.5
2017-Jul-21 04:55N 54°29' E 011°38'1510.8
2017-Jul-21 03:32N 54°27' E 012°03'010.6
2017-Jul-21 03:30N 54°27' E 012°03'5 9.7
2017-Jul-21 03:00N 54°29' E 012°11'611.1
2017-Jul-21 02:30N 54°34' E 012°13'510.7
2017-Jul-21 02:01N 54°39' E 012°19'3910.6
2017-Jul-20 22:19N 54°58' E 013°18'10 9.6
2017-Jul-20 21:16N 55°07' E 013°27'310.4
2017-Jul-20 20:58N 55°09' E 013°30'510.6
2017-Jul-20 20:30N 55°14' E 013°35'510.4
2017-Jul-20 20:00N 55°18' E 013°40'510.4
2017-Jul-20 19:30N 55°22' E 013°46'4 2.8
2017-Jul-20 18:02N 55°25' E 013°50'0 0.0
2017-Jul-20 17:50N 55°25' E 013°50'0 0.0
2017-Jul-20 17:26N 55°25' E 013°50'0 0.0
2017-Jul-20 16:56N 55°25' E 013°50'0 0.0
2017-Jul-20 16:26N 55°25' E 013°50'0 0.0
2017-Jul-20 15:56N 55°25' E 013°50'0 0.0
2017-Jul-20 15:26N 55°25' E 013°50'0 0.0
2017-Jul-20 14:56N 55°25' E 013°50'0 0.0
2017-Jul-20 13:26N 55°25' E 013°50'0 0.0
2017-Jul-20 12:56N 55°25' E 013°50'0 0.0
2017-Jul-20 12:26N 55°25' E 013°50'0 0.0
2017-Jul-20 11:56N 55°25' E 013°50'0 0.0
2017-Jul-20 11:26N 55°25' E 013°50'0 0.0
2017-Jul-20 10:44N 55°25' E 013°50'0 0.0
2017-Jul-20 10:26N 55°25' E 013°50'0 0.0
2017-Jul-20 09:56N 55°25' E 013°50'0 0.0
2017-Jul-20 09:26N 55°25' E 013°50'0 0.1
2017-Jul-20 08:56N 55°25' E 013°50'0 0.1
2017-Jul-20 08:26N 55°25' E 013°50'0 0.0
2017-Jul-20 07:56N 55°25' E 013°50'0 0.0
2017-Jul-20 07:26N 55°25' E 013°50'0 0.0
2017-Jul-20 06:59N 55°25' E 013°50'0 0.0
2017-Jul-20 06:14N 55°25' E 013°50'0 0.0
2017-Jul-20 05:50N 55°25' E 013°50'0 0.0
2017-Jul-20 05:26N 55°25' E 013°50'0 0.0
2017-Jul-20 04:50N 55°25' E 013°50'0 0.0
2017-Jul-20 04:26N 55°25' E 013°50'0 0.0
2017-Jul-20 02:26N 55°25' E 013°50'0 0.0
2017-Jul-20 01:38N 55°25' E 013°50'0 0.0
2017-Jul-20 01:26N 55°25' E 013°50'0 0.0
2017-Jul-20 00:35N 55°25' E 013°50'0 0.0
2017-Jul-20 00:20N 55°25' E 013°50'0 0.0
2017-Jul-19 23:56N 55°25' E 013°50'0 0.0
2017-Jul-19 23:29N 55°25' E 013°50'0 0.0
2017-Jul-19 21:32N 55°25' E 013°50'0 0.1
2017-Jul-19 21:26N 55°25' E 013°50'0 0.0
2017-Jul-19 20:44N 55°25' E 013°50'0 0.0
2017-Jul-19 20:20N 55°25' E 013°50'0 0.0
2017-Jul-19 19:56N 55°25' E 013°50'0 0.0
2017-Jul-19 19:29N 55°25' E 013°50'0 0.0
2017-Jul-19 18:50N 55°25' E 013°50'0 0.0
2017-Jul-19 18:26N 55°25' E 013°50'0 0.0
2017-Jul-19 17:50N 55°25' E 013°50'0 0.0
2017-Jul-19 17:26N 55°25' E 013°50'0 0.0
2017-Jul-19 16:56N 55°25' E 013°50'0 0.0
2017-Jul-19 16:26N 55°25' E 013°50'0 0.0
2017-Jul-19 15:44N 55°25' E 013°50'0 0.0
2017-Jul-19 15:26N 55°25' E 013°50'0 0.0
2017-Jul-19 14:50N 55°25' E 013°50'0 0.0
2017-Jul-19 14:26N 55°25' E 013°50'0 0.0
2017-Jul-19 13:56N 55°25' E 013°50'0 0.0
2017-Jul-19 13:26N 55°25' E 013°50'0 0.0
2017-Jul-19 12:38N 55°25' E 013°50'0 0.0
2017-Jul-19 12:26N 55°25' E 013°50'0 0.0
2017-Jul-19 11:50N 55°25' E 013°50'0 0.0
2017-Jul-19 11:26N 55°25' E 013°50'0 0.0
2017-Jul-19 10:56N 55°25' E 013°50'0 0.0
2017-Jul-19 09:56N 55°25' E 013°50'0 0.0
2017-Jul-19 09:26N 55°25' E 013°50'0 0.0
2017-Jul-19 08:50N 55°25' E 013°50'0 0.0
2017-Jul-19 08:26N 55°25' E 013°50'0 0.0
2017-Jul-19 07:56N 55°25' E 013°50'0 0.0
2017-Jul-19 06:50N 55°25' E 013°50'0 0.0
2017-Jul-19 06:26N 55°25' E 013°50'0 0.0
2017-Jul-19 05:56N 55°25' E 013°50'0 0.0
2017-Jul-19 05:20N 55°25' E 013°50'0 0.0
2017-Jul-19 04:50N 55°25' E 013°50'0 0.0
2017-Jul-19 04:26N 55°25' E 013°50'0 0.0
2017-Jul-19 03:50N 55°25' E 013°50'0 0.0
2017-Jul-19 03:26N 55°25' E 013°50'0 0.0
2017-Jul-19 02:56N 55°25' E 013°50'0 0.0
2017-Jul-19 02:20N 55°25' E 013°50'0 0.0
2017-Jul-19 01:56N 55°25' E 013°50'0 0.0
2017-Jul-19 01:26N 55°25' E 013°50'0 0.0
2017-Jul-19 00:56N 55°25' E 013°50'0 0.0
2017-Jul-19 00:20N 55°25' E 013°50'0 0.0
2017-Jul-18 23:50N 55°25' E 013°50'0 0.0
2017-Jul-18 23:26N 55°25' E 013°50'0 0.0
2017-Jul-18 22:56N 55°25' E 013°50'0 0.0
2017-Jul-18 22:08N 55°25' E 013°50'0 0.0
2017-Jul-18 21:50N 55°25' E 013°50'1 2.0
2017-Jul-18 21:30N 55°25' E 013°49'510.4
2017-Jul-18 21:00N 55°20' E 013°52'612.1
2017-Jul-18 20:30N 55°15' E 013°59'611.3
2017-Jul-18 20:00N 55°14' E 014°08'510.8
2017-Jul-18 19:30N 55°15' E 014°17'611.8
2017-Jul-18 19:00N 55°20' E 014°24'611.5
2017-Jul-18 18:30N 55°24' E 014°30'611.6
2017-Jul-18 18:00N 55°29' E 014°36'611.6
2017-Jul-18 17:30N 55°35' E 014°39'611.8
2017-Jul-18 17:00N 55°40' E 014°41'612.0
2017-Jul-18 16:30N 55°46' E 014°43'611.9
2017-Jul-18 16:00N 55°52' E 014°45'611.9
2017-Jul-18 15:30N 55°58' E 014°47'611.9
2017-Jul-18 15:00N 56°04' E 014°51'6 6.0
2017-Jul-18 13:59N 56°10' E 014°52'0 0.0
2017-Jul-18 13:29N 56°10' E 014°52'0 0.0
2017-Jul-18 12:59N 56°10' E 014°52'0 0.0
2017-Jul-18 12:26N 56°10' E 014°52'0 0.0
2017-Jul-18 11:59N 56°10' E 014°52'0 0.0
2017-Jul-18 11:29N 56°10' E 014°52'0 0.0
2017-Jul-18 10:59N 56°10' E 014°52'0 0.0
2017-Jul-18 10:26N 56°10' E 014°52'0 0.0
2017-Jul-18 09:59N 56°10' E 014°52'0 0.0
2017-Jul-18 09:29N 56°10' E 014°52'0 0.0
2017-Jul-18 08:59N 56°10' E 014°52'0 0.0
2017-Jul-18 08:29N 56°10' E 014°52'0 0.0
2017-Jul-18 07:59N 56°10' E 014°52'0 0.0
2017-Jul-18 07:29N 56°10' E 014°52'0 0.0
2017-Jul-18 06:59N 56°10' E 014°52'  
Track history (hours):
 
Tides and Currents Weather Stations Pressure Air Temp Water Temp Dewpoint Dewpoint Depression Visibility Wind Speed Wind Dir Waves Ship Positions

Robijn

Last reported at 2017-Jul-28 06:30 UTC. Time now 2017-Jul-28 06:52 UTC.
Position N 51°49' E 003°22'.

Length 90 m; draft 3.2 m.

Type: Cargo ship. MMSI: 245909000.

Date/timePositionNaut miles runAvg speedWind from/ knotsBaromVisibWave heightAir tempDewpointWater temp
2017-Jul-28 06:30N 51°49' E 003°22'0 0.0
2017-Jul-28 06:00N 51°49' E 003°22'0 0.0
2017-Jul-28 05:30N 51°49' E 003°22'0 0.2
2017-Jul-28 04:06N 51°49' E 003°21'0 0.0
2017-Jul-28 04:00N 51°49' E 003°21'0 0.3
2017-Jul-28 02:38N 51°49' E 003°22'0 0.0
2017-Jul-28 02:30N 51°49' E 003°22'0 0.1
2017-Jul-28 01:41N 51°49' E 003°22'0 0.0
2017-Jul-28 01:30N 51°49' E 003°22'0 0.1
2017-Jul-28 01:00N 51°49' E 003°22'0 0.1
2017-Jul-28 00:30N 51°49' E 003°22'0 0.0
2017-Jul-28 00:00N 51°49' E 003°22'0 0.1
2017-Jul-27 23:30N 51°49' E 003°22'0 0.0
2017-Jul-27 23:00N 51°49' E 003°22'0 0.1
2017-Jul-27 22:30N 51°49' E 003°22'0 0.1
2017-Jul-27 22:00N 51°49' E 003°22'0 0.0
2017-Jul-27 19:23N 51°49' E 003°21'0 0.2
2017-Jul-27 19:00N 51°49' E 003°21'0 0.1
2017-Jul-27 18:30N 51°49' E 003°21'0 0.2
2017-Jul-27 18:00N 51°49' E 003°21'0 0.0
2017-Jul-27 12:30N 51°48' E 003°21'0 0.0
2017-Jul-27 11:19N 51°48' E 003°21'0 0.0
2017-Jul-27 11:00N 51°48' E 003°21'0 0.1
2017-Jul-27 10:30N 51°48' E 003°21'0 0.1
2017-Jul-27 09:10N 51°48' E 003°21'0 0.0
2017-Jul-27 09:00N 51°48' E 003°21'0 0.0
2017-Jul-27 02:56N 51°48' E 003°21'0 0.0
2017-Jul-27 02:30N 51°48' E 003°21'0 0.0
2017-Jul-27 02:00N 51°48' E 003°21'0 0.1
2017-Jul-27 01:26N 51°48' E 003°21'0 0.0
2017-Jul-27 01:00N 51°48' E 003°21'0 0.1
2017-Jul-27 00:30N 51°48' E 003°21'0 0.0
2017-Jul-27 00:00N 51°48' E 003°21'0 0.1
2017-Jul-26 23:30N 51°48' E 003°21'0 0.0
2017-Jul-26 23:00N 51°48' E 003°21'0 0.0
2017-Jul-26 22:30N 51°48' E 003°21'2 2.7
2017-Jul-26 21:54N 51°48' E 003°18'0 0.0
2017-Jul-26 21:30N 51°48' E 003°18'10 9.6
2017-Jul-26 20:30N 51°39' E 003°21'713.0
2017-Jul-26 20:00N 51°33' E 003°25'613.1
2017-Jul-26 19:30N 51°28' E 003°31'5 9.1
2017-Jul-26 19:00N 51°26' E 003°38'611.2
2017-Jul-26 18:30N 51°22' E 003°44'4 7.8
2017-Jul-26 18:00N 51°20' E 003°49'0 0.6
2017-Jul-26 17:30N 51°19' E 003°49'3 5.4
2017-Jul-26 16:59N 51°17' E 003°50'3 6.4
2017-Jul-26 16:30N 51°14' E 003°49'4 7.3
2017-Jul-26 16:00N 51°10' E 003°48'5 9.2
2017-Jul-26 15:30N 51°06' E 003°45'1 1.3
2017-Jul-26 14:58N 51°06' E 003°45'0 0.0
2017-Jul-26 13:58N 51°06' E 003°45'0 0.0
2017-Jul-26 13:28N 51°06' E 003°45'0 0.0
2017-Jul-26 12:58N 51°06' E 003°45'0 0.0
2017-Jul-26 12:28N 51°06' E 003°45'0 0.0
2017-Jul-26 11:58N 51°06' E 003°45'0 0.0
2017-Jul-26 11:28N 51°06' E 003°45'0 0.0
2017-Jul-26 10:58N 51°06' E 003°45'0 0.0
2017-Jul-26 10:28N 51°06' E 003°45'0 0.0
2017-Jul-26 09:58N 51°06' E 003°45'0 0.0
2017-Jul-26 09:28N 51°06' E 003°45'0 0.0
2017-Jul-26 08:58N 51°06' E 003°45'0 0.0
2017-Jul-26 08:28N 51°06' E 003°45'0 0.0
2017-Jul-26 07:58N 51°06' E 003°45'0 0.0
2017-Jul-26 07:28N 51°06' E 003°45'0 0.0
2017-Jul-26 06:58N 51°06' E 003°45'0 0.0
2017-Jul-26 06:28N 51°06' E 003°45'0 0.0
2017-Jul-26 05:58N 51°06' E 003°45'0 0.0
2017-Jul-26 05:28N 51°06' E 003°45'0 0.0
2017-Jul-26 04:58N 51°06' E 003°45'0 0.0
2017-Jul-26 04:28N 51°06' E 003°45'0 0.0
2017-Jul-26 03:58N 51°06' E 003°45'0 0.0
2017-Jul-26 03:28N 51°06' E 003°45'0 0.0
2017-Jul-26 02:58N 51°06' E 003°45'0 0.0
2017-Jul-26 02:28N 51°06' E 003°45'0 0.0
2017-Jul-26 01:58N 51°06' E 003°45'0 0.0
2017-Jul-26 01:28N 51°06' E 003°45'0 0.0
2017-Jul-26 00:58N 51°06' E 003°45'0 0.0
2017-Jul-26 00:28N 51°06' E 003°45'0 0.0
2017-Jul-25 23:58N 51°06' E 003°45'0 0.0
2017-Jul-25 23:28N 51°06' E 003°45'0 0.0
2017-Jul-25 22:58N 51°06' E 003°45'0 0.0
2017-Jul-25 22:28N 51°06' E 003°45'0 0.0
2017-Jul-25 21:58N 51°06' E 003°45'0 0.0
2017-Jul-25 21:28N 51°06' E 003°45'0 0.0
2017-Jul-25 20:58N 51°06' E 003°45'0 0.0
2017-Jul-25 20:28N 51°06' E 003°45'0 0.0
2017-Jul-25 19:58N 51°06' E 003°45'0 0.0
2017-Jul-25 19:28N 51°06' E 003°45'0 0.0
2017-Jul-25 18:58N 51°06' E 003°45'0 0.0
2017-Jul-25 18:28N 51°06' E 003°45'0 0.0
2017-Jul-25 17:58N 51°06' E 003°45'0 0.0
2017-Jul-25 17:28N 51°06' E 003°45'0 0.0
2017-Jul-25 16:58N 51°06' E 003°45'0 0.0
2017-Jul-25 16:28N 51°06' E 003°45'0 0.2
2017-Jul-25 16:00N 51°05' E 003°45'0 0.0
2017-Jul-25 15:27N 51°05' E 003°45'0 0.0
2017-Jul-25 15:00N 51°05' E 003°45'0 0.0
2017-Jul-25 14:00N 51°05' E 003°45'0 0.0
2017-Jul-25 13:30N 51°05' E 003°45'0 0.0
2017-Jul-25 13:00N 51°05' E 003°45'0 0.0
2017-Jul-25 12:30N 51°05' E 003°45'0 0.0
2017-Jul-25 12:00N 51°05' E 003°45'0 0.0
2017-Jul-25 11:30N 51°05' E 003°45'0 0.0
2017-Jul-25 11:00N 51°05' E 003°45'0 0.0
2017-Jul-25 10:30N 51°05' E 003°45'0 0.0
2017-Jul-25 10:00N 51°05' E 003°45'0 0.0
2017-Jul-25 09:30N 51°05' E 003°45'0 0.0
2017-Jul-25 08:57N 51°05' E 003°45'0 0.0
2017-Jul-25 08:30N 51°05' E 003°45'0 0.0
2017-Jul-25 08:00N 51°05' E 003°45'0 0.0
2017-Jul-25 07:30N 51°05' E 003°45'0 0.0
2017-Jul-25 06:57N 51°05' E 003°45'0 0.0
2017-Jul-25 06:30N 51°05' E 003°45'0 0.0
2017-Jul-25 06:00N 51°05' E 003°45'0 0.1
2017-Jul-25 05:30N 51°06' E 003°45'0 0.0
2017-Jul-25 05:00N 51°06' E 003°45'0 0.0
2017-Jul-25 04:30N 51°06' E 003°45'0 0.0
2017-Jul-25 04:00N 51°06' E 003°45'0 0.0
2017-Jul-25 03:30N 51°06' E 003°45'0 0.0
2017-Jul-25 03:00N 51°06' E 003°45'0 0.0
2017-Jul-25 02:30N 51°06' E 003°45'0 0.0
2017-Jul-25 02:00N 51°06' E 003°45'0 0.0
2017-Jul-25 01:30N 51°06' E 003°45'0 0.0
2017-Jul-25 01:00N 51°06' E 003°45'0 0.0
2017-Jul-25 00:30N 51°06' E 003°45'0 0.0
2017-Jul-24 23:57N 51°06' E 003°45'0 0.0
2017-Jul-24 23:30N 51°06' E 003°45'0 0.0
2017-Jul-24 23:00N 51°06' E 003°45'0 0.0
2017-Jul-24 22:30N 51°06' E 003°45'0 0.0
2017-Jul-24 22:00N 51°06' E 003°45'0 0.0
2017-Jul-24 21:30N 51°06' E 003°45'0 0.0
2017-Jul-24 20:57N 51°06' E 003°45'0 0.0
2017-Jul-24 20:30N 51°06' E 003°45'0 0.0
2017-Jul-24 20:00N 51°06' E 003°45'0 0.0
2017-Jul-24 19:30N 51°06' E 003°45'0 0.0
2017-Jul-24 19:00N 51°06' E 003°45'0 0.0
2017-Jul-24 18:30N 51°06' E 003°45'0 0.0
2017-Jul-24 18:00N 51°06' E 003°45'0 0.0
2017-Jul-24 17:30N 51°06' E 003°45'0 0.0
2017-Jul-24 17:00N 51°06' E 003°45'0 0.0
2017-Jul-24 16:30N 51°06' E 003°45'0 0.0
2017-Jul-24 16:00N 51°06' E 003°45'0 0.0
2017-Jul-24 13:00N 51°06' E 003°45'0 0.0
2017-Jul-24 12:30N 51°06' E 003°45'0 0.0
2017-Jul-24 12:00N 51°06' E 003°45'0 0.0
2017-Jul-24 11:30N 51°06' E 003°45'0 0.0
2017-Jul-24 11:00N 51°06' E 003°45'0 0.0
2017-Jul-24 10:30N 51°06' E 003°45'0 0.0
2017-Jul-24 10:00N 51°06' E 003°45'0 0.0
2017-Jul-24 09:30N 51°06' E 003°45'0 0.0
2017-Jul-24 09:00N 51°06' E 003°45'0 0.0
2017-Jul-24 08:30N 51°06' E 003°45'0 0.0
2017-Jul-24 08:00N 51°06' E 003°45'0 0.0
2017-Jul-24 07:30N 51°06' E 003°45'0 0.0
2017-Jul-24 07:00N 51°06' E 003°45'0 0.0
2017-Jul-24 06:30N 51°06' E 003°45'0 0.0
2017-Jul-24 06:00N 51°06' E 003°45'0 0.0
2017-Jul-24 05:30N 51°06' E 003°45'0 0.0
2017-Jul-24 05:00N 51°06' E 003°45'0 0.0
2017-Jul-24 04:30N 51°06' E 003°45'0 0.0
2017-Jul-24 04:00N 51°06' E 003°45'0 0.0
2017-Jul-24 03:30N 51°06' E 003°45'0 0.0
2017-Jul-24 02:57N 51°06' E 003°45'0 0.0
2017-Jul-24 02:30N 51°06' E 003°45'0 0.0
2017-Jul-24 02:00N 51°06' E 003°45'0 0.0
2017-Jul-24 01:30N 51°06' E 003°45'0 0.0
2017-Jul-24 01:00N 51°06' E 003°45'0 0.0
2017-Jul-24 00:30N 51°06' E 003°45'0 0.0
2017-Jul-24 00:00N 51°06' E 003°45'0 0.0
2017-Jul-23 23:30N 51°06' E 003°45'0 0.0
2017-Jul-23 23:00N 51°06' E 003°45'0 0.0
2017-Jul-23 22:30N 51°06' E 003°45'0 0.0
2017-Jul-23 22:00N 51°06' E 003°45'0 0.0
2017-Jul-23 21:30N 51°06' E 003°45'0 0.0
2017-Jul-23 21:00N 51°06' E 003°45'0 0.0
2017-Jul-23 20:30N 51°06' E 003°45'0 0.0
2017-Jul-23 20:00N 51°06' E 003°45'0 0.0
2017-Jul-23 19:30N 51°06' E 003°45'0 0.0
2017-Jul-23 18:57N 51°06' E 003°45'0 0.0
2017-Jul-23 18:30N 51°06' E 003°45'0 0.0
2017-Jul-23 18:00N 51°06' E 003°45'0 0.0
2017-Jul-23 17:30N 51°06' E 003°45'0 0.0
2017-Jul-23 17:00N 51°06' E 003°45'0 0.0
2017-Jul-23 16:30N 51°06' E 003°45'0 0.0
2017-Jul-23 16:00N 51°06' E 003°45'0 0.0
2017-Jul-23 15:30N 51°06' E 003°45'0 0.0
2017-Jul-23 15:00N 51°06' E 003°45'0 0.0
2017-Jul-23 14:30N 51°06' E 003°45'0 0.0
2017-Jul-23 14:00N 51°06' E 003°45'0 0.0
2017-Jul-23 13:30N 51°06' E 003°45'0 0.0
2017-Jul-23 13:00N 51°06' E 003°45'0 0.0
2017-Jul-23 12:30N 51°06' E 003°45'0 0.0
2017-Jul-23 11:57N 51°06' E 003°45'0 0.0
2017-Jul-23 11:30N 51°06' E 003°45'0 0.0
2017-Jul-23 11:00N 51°06' E 003°45'1 1.3
2017-Jul-23 10:30N 51°06' E 003°45'4 7.7
2017-Jul-23 10:01N 51°10' E 003°47'4 8.2
2017-Jul-23 09:30N 51°14' E 003°48'4 7.5
2017-Jul-23 09:00N 51°17' E 003°50'3 5.1
2017-Jul-23 08:30N 51°20' E 003°49'0 0.0
2017-Jul-23 08:00N 51°20' E 003°49'1 1.6
2017-Jul-23 07:30N 51°20' E 003°49'4 7.6
2017-Jul-23 07:00N 51°23' E 003°44'4 7.8
2017-Jul-23 06:30N 51°26' E 003°41'4 7.8
2017-Jul-23 06:00N 51°26' E 003°34'4 8.8
2017-Jul-23 05:30N 51°29' E 003°30'4 9.0
2017-Jul-23 05:00N 51°33' E 003°25'4 8.6
2017-Jul-23 04:30N 51°36' E 003°22'510.7
2017-Jul-23 04:00N 51°41' E 003°17'4 6.5
2017-Jul-23 03:24N 51°45' E 003°15'3 6.6
2017-Jul-23 03:00N 51°47' E 003°15'510.2
2017-Jul-23 02:30N 51°52' E 003°18'2 3.2
2017-Jul-23 02:00N 51°54' E 003°19'32 7.4
2017-Jul-22 21:41N 52°25' E 003°26'2 9.2
2017-Jul-22 21:30N 52°27' E 003°27'5 9.4
2017-Jul-22 21:00N 52°32' E 003°28'5 9.5
2017-Jul-22 20:30N 52°36' E 003°30'5 9.6
2017-Jul-22 19:58N 52°41' E 003°35'510.2
2017-Jul-22 19:30N 52°44' E 003°39'610.3
2017-Jul-22 18:58N 52°49' E 003°45'16 9.3
2017-Jul-22 17:17N 53°00' E 004°03'2 8.6
2017-Jul-22 17:00N 53°02' E 004°05'43 8.1
2017-Jul-22 11:37N 53°33' E 004°56'110.4
2017-Jul-22 11:30N 53°34' E 004°57'510.5
2017-Jul-22 11:00N 53°35' E 005°06'510.3
2017-Jul-22 10:30N 53°37' E 005°14'5 9.8
2017-Jul-22 10:00N 53°38' E 005°22'5 9.7
2017-Jul-22 09:30N 53°40' E 005°30'5 9.5
2017-Jul-22 09:00N 53°41' E 005°37'5 9.0
2017-Jul-22 08:30N 53°42' E 005°45'68 9.9
2017-Jul-22 01:38N 54°01' E 007°36'311.8
2017-Jul-22 01:23N 54°02' E 007°41'511.8
2017-Jul-22 00:59N 54°02' E 007°49'612.0
2017-Jul-22 00:30N 54°02' E 007°59'612.4
2017-Jul-21 23:59N 54°01' E 008°10'612.6
2017-Jul-21 23:30N 54°00' E 008°20'612.1
2017-Jul-21 23:00N 53°59' E 008°30'510.4
2017-Jul-21 22:30N 53°57' E 008°38'5 9.2
2017-Jul-21 22:00N 53°53' E 008°42'4 8.1
2017-Jul-21 21:30N 53°51' E 008°48'4 8.0
2017-Jul-21 21:00N 53°51' E 008°54'4 7.7
2017-Jul-21 20:30N 53°52' E 009°01'4 8.0
2017-Jul-21 20:00N 53°53' E 009°07'1 2.2
2017-Jul-21 19:30N 53°54' E 009°09'1 1.9
2017-Jul-21 19:00N 53°54' E 009°10'4 8.6
2017-Jul-21 18:30N 53°57' E 009°15'4 8.4
2017-Jul-21 18:00N 54°01' E 009°18'1 2.0
2017-Jul-21 17:30N 54°02' E 009°18'58 6.3
2017-Jul-21 08:14N 54°35' E 010°40'210.0
2017-Jul-21 08:00N 54°36' E 010°44'510.0
2017-Jul-21 07:30N 54°36' E 010°53'510.8
2017-Jul-21 07:00N 54°36' E 011°02'510.8
2017-Jul-21 06:30N 54°37' E 011°12'510.4
2017-Jul-21 06:00N 54°34' E 011°20'510.6
2017-Jul-21 05:30N 54°32' E 011°28'610.5
2017-Jul-21 04:55N 54°29' E 011°38'1510.8
2017-Jul-21 03:32N 54°27' E 012°03'010.6
2017-Jul-21 03:30N 54°27' E 012°03'5 9.7
2017-Jul-21 03:00N 54°29' E 012°11'611.1
2017-Jul-21 02:30N 54°34' E 012°13'510.7
2017-Jul-21 02:01N 54°39' E 012°19'3910.6
2017-Jul-20 22:19N 54°58' E 013°18'10 9.6
2017-Jul-20 21:16N 55°07' E 013°27'310.4
2017-Jul-20 20:58N 55°09' E 013°30'510.6
2017-Jul-20 20:30N 55°14' E 013°35'510.4
2017-Jul-20 20:00N 55°18' E 013°40'510.4
2017-Jul-20 19:30N 55°22' E 013°46'4 2.8
2017-Jul-20 18:02N 55°25' E 013°50'0 0.0
2017-Jul-20 17:50N 55°25' E 013°50'0 0.0
2017-Jul-20 17:26N 55°25' E 013°50'0 0.0
2017-Jul-20 16:56N 55°25' E 013°50'0 0.0
2017-Jul-20 16:26N 55°25' E 013°50'0 0.0
2017-Jul-20 15:56N 55°25' E 013°50'0 0.0
2017-Jul-20 15:26N 55°25' E 013°50'0 0.0
2017-Jul-20 14:56N 55°25' E 013°50'0 0.0
2017-Jul-20 13:26N 55°25' E 013°50'0 0.0
2017-Jul-20 12:56N 55°25' E 013°50'0 0.0
2017-Jul-20 12:26N 55°25' E 013°50'0 0.0
2017-Jul-20 11:56N 55°25' E 013°50'0 0.0
2017-Jul-20 11:26N 55°25' E 013°50'0 0.0
2017-Jul-20 10:44N 55°25' E 013°50'0 0.0
2017-Jul-20 10:26N 55°25' E 013°50'0 0.0
2017-Jul-20 09:56N 55°25' E 013°50'0 0.0
2017-Jul-20 09:26N 55°25' E 013°50'0 0.1
2017-Jul-20 08:56N 55°25' E 013°50'0 0.1
2017-Jul-20 08:26N 55°25' E 013°50'0 0.0
2017-Jul-20 07:56N 55°25' E 013°50'0 0.0
2017-Jul-20 07:26N 55°25' E 013°50'0 0.0
2017-Jul-20 06:59N 55°25' E 013°50'0 0.0
2017-Jul-20 06:14N 55°25' E 013°50'0 0.0
2017-Jul-20 05:50N 55°25' E 013°50'0 0.0
2017-Jul-20 05:26N 55°25' E 013°50'0 0.0
2017-Jul-20 04:50N 55°25' E 013°50'0 0.0
2017-Jul-20 04:26N 55°25' E 013°50'0 0.0
2017-Jul-20 02:26N 55°25' E 013°50'0 0.0
2017-Jul-20 01:38N 55°25' E 013°50'0 0.0
2017-Jul-20 01:26N 55°25' E 013°50'0 0.0
2017-Jul-20 00:35N 55°25' E 013°50'0 0.0
2017-Jul-20 00:20N 55°25' E 013°50'0 0.0
2017-Jul-19 23:56N 55°25' E 013°50'0 0.0
2017-Jul-19 23:29N 55°25' E 013°50'0 0.0
2017-Jul-19 21:32N 55°25' E 013°50'0 0.1
2017-Jul-19 21:26N 55°25' E 013°50'0 0.0
2017-Jul-19 20:44N 55°25' E 013°50'0 0.0
2017-Jul-19 20:20N 55°25' E 013°50'0 0.0
2017-Jul-19 19:56N 55°25' E 013°50'0 0.0
2017-Jul-19 19:29N 55°25' E 013°50'0 0.0
2017-Jul-19 18:50N 55°25' E 013°50'0 0.0
2017-Jul-19 18:26N 55°25' E 013°50'0 0.0
2017-Jul-19 17:50N 55°25' E 013°50'0 0.0
2017-Jul-19 17:26N 55°25' E 013°50'0 0.0
2017-Jul-19 16:56N 55°25' E 013°50'0 0.0
2017-Jul-19 16:26N 55°25' E 013°50'0 0.0
2017-Jul-19 15:44N 55°25' E 013°50'0 0.0
2017-Jul-19 15:26N 55°25' E 013°50'0 0.0
2017-Jul-19 14:50N 55°25' E 013°50'0 0.0
2017-Jul-19 14:26N 55°25' E 013°50'0 0.0
2017-Jul-19 13:56N 55°25' E 013°50'0 0.0
2017-Jul-19 13:26N 55°25' E 013°50'0 0.0
2017-Jul-19 12:38N 55°25' E 013°50'0 0.0
2017-Jul-19 12:26N 55°25' E 013°50'0 0.0
2017-Jul-19 11:50N 55°25' E 013°50'0 0.0
2017-Jul-19 11:26N 55°25' E 013°50'0 0.0
2017-Jul-19 10:56N 55°25' E 013°50'0 0.0
2017-Jul-19 09:56N 55°25' E 013°50'0 0.0
2017-Jul-19 09:26N 55°25' E 013°50'0 0.0
2017-Jul-19 08:50N 55°25' E 013°50'0 0.0
2017-Jul-19 08:26N 55°25' E 013°50'0 0.0
2017-Jul-19 07:56N 55°25' E 013°50'0 0.0
2017-Jul-19 06:50N 55°25' E 013°50'0 0.0
2017-Jul-19 06:26N 55°25' E 013°50'0 0.0
2017-Jul-19 05:56N 55°25' E 013°50'0 0.0
2017-Jul-19 05:20N 55°25' E 013°50'0 0.0
2017-Jul-19 04:50N 55°25' E 013°50'0 0.0
2017-Jul-19 04:26N 55°25' E 013°50'0 0.0
2017-Jul-19 03:50N 55°25' E 013°50'0 0.0
2017-Jul-19 03:26N 55°25' E 013°50'0 0.0
2017-Jul-19 02:56N 55°25' E 013°50'0 0.0
2017-Jul-19 02:20N 55°25' E 013°50'0 0.0
2017-Jul-19 01:56N 55°25' E 013°50'0 0.0
2017-Jul-19 01:26N 55°25' E 013°50'0 0.0
2017-Jul-19 00:56N 55°25' E 013°50'0 0.0
2017-Jul-19 00:20N 55°25' E 013°50'0 0.0
2017-Jul-18 23:50N 55°25' E 013°50'0 0.0
2017-Jul-18 23:26N 55°25' E 013°50'0 0.0
2017-Jul-18 22:56N 55°25' E 013°50'0 0.0
2017-Jul-18 22:08N 55°25' E 013°50'0 0.0
2017-Jul-18 21:50N 55°25' E 013°50'1 2.0
2017-Jul-18 21:30N 55°25' E 013°49'510.4
2017-Jul-18 21:00N 55°20' E 013°52'612.1
2017-Jul-18 20:30N 55°15' E 013°59'611.3
2017-Jul-18 20:00N 55°14' E 014°08'510.8
2017-Jul-18 19:30N 55°15' E 014°17'611.8
2017-Jul-18 19:00N 55°20' E 014°24'611.5
2017-Jul-18 18:30N 55°24' E 014°30'611.6
2017-Jul-18 18:00N 55°29' E 014°36'611.6
2017-Jul-18 17:30N 55°35' E 014°39'611.8
2017-Jul-18 17:00N 55°40' E 014°41'612.0
2017-Jul-18 16:30N 55°46' E 014°43'611.9
2017-Jul-18 16:00N 55°52' E 014°45'611.9
2017-Jul-18 15:30N 55°58' E 014°47'611.9
2017-Jul-18 15:00N 56°04' E 014°51'6 6.0
2017-Jul-18 13:59N 56°10' E 014°52'0 0.0
2017-Jul-18 13:29N 56°10' E 014°52'0 0.0
2017-Jul-18 12:59N 56°10' E 014°52'0 0.0
2017-Jul-18 12:26N 56°10' E 014°52'0 0.0
2017-Jul-18 11:59N 56°10' E 014°52'0 0.0
2017-Jul-18 11:29N 56°10' E 014°52'0 0.0
2017-Jul-18 10:59N 56°10' E 014°52'0 0.0
2017-Jul-18 10:26N 56°10' E 014°52'0 0.0
2017-Jul-18 09:59N 56°10' E 014°52'0 0.0
2017-Jul-18 09:29N 56°10' E 014°52'0 0.0
2017-Jul-18 08:59N 56°10' E 014°52'0 0.0
2017-Jul-18 08:29N 56°10' E 014°52'0 0.0
2017-Jul-18 07:59N 56°10' E 014°52'0 0.0
2017-Jul-18 07:29N 56°10' E 014°52'0 0.0
2017-Jul-18 06:59N 56°10' E 014°52'  

Dump ship's entire track history